India Meteorological Department
Airport METARs
Date : 19-10-2019
Sl. # Airport METAR
1 Agartala VEAT 191400Z 00000KT 5000 BR NSC 28/26 Q1013 NOSIG=
2 Ahmedabad VAAH 191400Z 07003KT 4000 FU FEW080 30/19 Q1012 NOSIG=
3 Allahabad VEAB 191400Z VRB02KT 3000 BR SCT020 BKN100 25/23 Q1014 TEMPO 2500M RA=
4 Amritsar VIAR 191400Z VRB01KT 2000 BR NSC 22/18 Q1016 NOSIG=
5 Aurangabad VAAU 191300Z 09003KT 3000 BR SCT020 SCT025 BKN100 FEW030CB 25/22 Q1014 NOSIG=
6 Bangalore VOBL 191400Z 10005KT 6000 SCT010 SCT080 22/22 Q1016 NOSIG=
7 Baroda VABO 191400Z 09004KT 6000 SCT080 29/24 Q1011 NOSIG=
8 Bhaunagar VABV 191400Z 17003KT 3000 HZ FEW020 SCT025 BKN080 27/23 Q1012=
9 Bhopal VABP 191400Z 09004KT 3000 HZ SCT020 BKN100 24/21 Q1016 NOSIG=
10 Bhubaneswar VEBS 191400Z 12004KT 5000 HZ FEW020 29/24 Q1012 NOSIG=
11 Chennai VOMM 191400Z 00000KT 5000 BR SCT018 FEW025TCU BKN080 28/26 Q1011 NOSIG=
12 Coimbatore VOCB 191400Z 04006KT 4000 BR FEW015 FEW025CB 27/23 Q1013 NOSIG=
13 Colombo VCBI 191410Z VRB02KT 9999 SCT016 FEW020CB 25/24 Q1009 NOSIG RMK SE/S/SW=
14 Delhi VIDP 191400Z 26004KT 3200 HZ FEW100 28/19 Q1014 NOSIG =
15 Dehradun VIDN 191400Z 09004KT 3000 HZ NSC 27/20 Q1015=
16 Gauhati VEGT 191400Z 00000KT 3000 BR SCT018 BKN100 28/25 Q1013 NOSIG=
17 Gaya VEGY 191400Z 22006KT 1500 BR SCT008 SCT018 FEW030CB OVC080 22/22 Q1014 =
18 Goa VOGO 191400Z 06006KT 6000 FEW016 FEW022TCU BKN100 25/23 Q1010 TEMPO 4500 RA/TSRA=
19 Hyderabad VOHS 191400Z 12007KT 4000 BR SCT015 SCT025 FEW030CB 23/22 Q1015 NOSIG=
20 Imphal VEIM 191230Z 26004KT 4500 HZ SCT018 SCT100 27/21 Q1014 NOSIG=
21 Indore VAID 191300Z 11005KT 2500 HZ SCT020 BKN100 25/22 Q1015 NOSIG=
22 Jabalpur VAJB 191400Z 01006KT 2500 BR SCT020 SCT030 BKN080 23/20 Q1016=
23 Jaipur VIJP 191400Z VRB02KT 3000 HZ SCT030 BKN100 28/15 Q1015 NOSIG=
24 Kochi VOCI 191400Z 09005KT 3500 BR SCT015 BKN080 26/25 Q1010 NOSIG=
25 Kolkata VECC 191400Z 00000KT 3000 HZ FEW020 SCT100 29/25 Q1012 NOSIG=
26 Kozhikode VOCL 191400Z 23004KT 3000 -TSRA FEW006 SCT010 FEW025CB BKN080 24/23 Q1010 BECMG 4000 -TSRA=
27 Lucknow VILK 191400Z 00000KT 3000 BR SCT020 BKN100 26/24 Q1014 NOSIG=
28 Madurai VOMD 191400Z 07006KT 4000 BR FEW017 SCT100 28/25 Q1011 NOSIG=
29 Mumbai VABB 191400Z 12005KT 2500 -RA SCT012 SCT018 FEW030CB OVC080 25/24 Q1011 TEMPO 1500 SHRA=
30 Nagpur VANP 191400Z 04007KT 2500 HZ SCT020 SCT100 26/21 Q1014 NOSIG=
31 Patna VEPT 191400Z 23003KT 2000 BR SCT018 BKN100 24/23 Q1013 NOSIG=
32 Raipur VERP 191400Z 02006KT 6000 FEW020 27/23 Q1014 NOSIG=
33 Safdarjung VIDD 191300Z 00000KT 2500 HZ SCT040 BKN100 28/20 Q1014 NOSIG=
34 Surat VASU 191400Z 09002KT 5000 HZ FEW020 SCT080 28/24 Q1012 NOSIG=
35 Ranchi VERC 191400Z 00000KT 2500 HZ SCT018 BKN100 21/21 Q1018 NOSIG=
36 Trichy VOTR 191400Z 06006KT 6000 SCT016 FEW025CB BKN080 28/24 Q1010 NOSIG=
37 Trivandrum VOTV 191400Z 19005KT 2500 +TSRA FEW008 SCT012 FEW025CB OVC080 26/25 Q1009 NOSIG=
38 Udaipur VAUD 191400Z 00000KT 3000 HZ FEW030 SCT100 28/18 Q1016 NOSIG =
39 Varanasi VEBN 191330Z 36003KT 1800 BR SCT025 BKN090 25/24 Q1014 NOSIG=
40 Vizag VOVZ 191400Z VRB02KT 4500 -TSRA FEW012 FEW025CB BKN080 26/25 Q1012 TEMPO 4000 -TSRA =
41 Male VRMM 191400Z 19007KT 9999 SCT018TCU BKN270 29/24 Q1009 NOSIG=
42 Gan VRMG 191400Z 14008KT 9999 FEW018 BKN260 28/24 Q1010 NOSIG=
43 Kathmandu VNKT 191350Z 26004KT 200V320 7000 FEW020 BKN100 20/17 Q1022 NOSIG=
44 Dhaka VGHS 191400Z 26003KT 4000 HZ FEW100 29/22 Q1013 NOSIG=
45 Colombo VCBI 191410Z VRB02KT 9999 SCT016 FEW020CB 25/24 Q1009 NOSIG RMK SE/S/SW=
46 Karachi OPKC 191355Z 05013KT 6000 NSC 31/12 Q1013 TEMPO 05015G25KT=
47 Lahore OPLA 191355Z 33006KT 5000 FU NSC 25/15 Q1015 NOSIG RMK QFE990 RMK A29.99=
48 Leh VILH 191400Z 29010KT 6000 SCT070 BKN120 09/-1 Q1027 NOSIG=
49 Sri Nagar VISR 191400Z 24004KT 5000 FU FEW025 SCT090 11/07 Q1028 NOSIG=
50 Jammu VIJU 191400Z 00000KT 6000 FEW025 SCT200 23/18 Q1016 NOSIG=
51 Jodhpur VIJO 191400Z VRB02KT 6000 SCT030 30/13 Q1014 NOSIG=
52 Jaisalmer VIJR 191400Z 02008KT 6000 SKC 31/12 Q1014 NOSIG=
53 Bhuj-Rudra VABJ 191400Z 02003KT 6000 FEW200 29/17 Q1013 NOSIG=
54 Gorakhpur VEGK 191400Z VRB02KT 4000 BR SCT030 BKN090 24/24 Q1014 NOSIG=
55 Agra VIAG 191400Z VRB01KT 6000 FEW030 BKN250 26/21 Q1014 NOSIG=
56 Bagdogra VEBD 191400Z VRB01KT 5000 BR FEW030 SCT250 23/21 Q1014 NOSIG=
57 Gwalior VIGR 191400Z VRB01KT 4000 HZ FEW030 SCT100 BKN250 27/21 Q1015 NOSIG=
58 Pune VAPO 191400Z VRB02KT 4000 -RA BKN008 FEW030TCU OVC080 22/21 Q1016 TEMPO 2000=
59 Chandigarh VICG 191400Z 34005KT 5000 HZ SKC 26/17 Q1015 NOSIG=
60 Jamnagar VAJM 191400Z 08004KT 6000 FEW250 30/19 Q1011 NOSIG=

 

--- End of List ---